Latest Coastal Weather Observations for Cape Naturaliste

IDW60701

Issued at 1:42 pm WST Tuesday 27 January 2015 (issued every 10 minutes, with the page automatically refreshed every 10 minutes)

About coastal observations | Map of coastal stations | Coastal observations for WA | Marine services | Other Formats
Station Details ID: 009519 Name: CAPE NATURALISTE Lat: -33.54 Lon: 115.02 Height: 109.0 m
Data from the previous 72 hours. | See also: Recent months at Cape Naturaliste
Date/Time
WST
Temp

°C
Wind Pressure Rain
since 9am
mm
Weather Cloud Vis
km
Sea
Height
m
Swell
Dir
 
Speed
knots
Gust
knots
hPa Trend Height
m
Period
s
Dir
27/01:30pm 29.8 SW 9 11 1008.5 - 0.0 - - - - - - -
27/01:00pm 30.6 SW 5 7 1008.7 - 0.0 - - - - - - -
27/12:30pm 27.7 SW 11 17 1009.0 - 0.0 - - - - - - -
27/12:00pm 29.2 SW 8 10 1009.1 - 0.0 - - - - - - -
27/11:30am 29.0 SW 9 13 1009.5 - 0.0 - - - - - - -
27/11:00am 31.9 ESE 11 15 1009.7 - 0.0 - - - - - - -
27/10:30am 29.6 ESE 14 18 1009.6 - 0.0 - - - - - - -
27/10:00am 28.1 ESE 16 19 1009.7 - 0.0 - - - - - - -
27/09:30am 26.6 ESE 15 20 1009.5 - 0.0 - - - - - - -
27/09:00am 25.2 ESE 16 22 1009.6 - 0.0 - - - - - - -
27/08:30am 24.0 ESE 15 20 1009.7 - 0.0 - - - - - - -
27/08:00am 22.4 ESE 16 20 1009.9 - 0.0 - - - - - - -
27/07:30am 21.1 ESE 17 22 1009.8 - 0.0 - - - - - - -
27/07:00am 19.6 ESE 17 22 1009.7 - 0.0 - - - - - - -
27/06:30am 18.6 ESE 17 20 1009.6 - 0.0 - - - - - - -
27/06:00am 17.5 ESE 17 21 1009.5 - 0.0 - - - - - - -
27/05:30am 17.7 ESE 17 21 1009.4 - 0.0 - - - - - - -
27/05:00am 18.5 ESE 17 21 1009.2 - 0.0 - - - - - - -
27/04:30am 18.7 ESE 17 21 1008.9 - 0.0 - - - - - - -
27/04:00am 18.9 ESE 17 21 1008.9 - 0.0 - - - - - - -
27/03:30am 19.4 ESE 17 23 1008.8 - 0.0 - - - - - - -
27/03:00am 19.7 ESE 17 21 1008.7 - 0.0 - - - - - - -
27/02:30am 20.1 ESE 17 22 1008.7 - 0.0 - - - - - - -
27/02:00am 20.7 ESE 18 22 1008.6 - 0.0 - - - - - - -
27/01:30am 20.9 ESE 17 22 1008.8 - 0.0 - - - - - - -
27/01:00am 21.3 ESE 17 22 1008.9 - 0.0 - - - - - - -
27/12:30am 21.4 ESE 16 23 1009.1 - 0.0 - - - - - - -
27/12:00am 22.1 ESE 17 23 1009.2 - 0.0 - - - - - - -
 
Date/Time
WST
Temp

°C
Wind Pressure Rain
since 9am
mm
Weather Cloud Vis
km
Sea
Height
m
Swell
Dir
 
Speed
knots
Gust
knots
hPa Trend Height
m
Period
s
Dir
26/11:30pm 22.2 ESE 17 21 1009.3 - 0.0 - - - - - - -
26/11:00pm 22.5 ESE 16 22 1009.3 - 0.0 - - - - - - -
26/10:30pm 23.2 SE 12 15 1009.4 - 0.0 - - - - - - -
26/10:00pm 23.6 SE 11 17 1009.6 - 0.0 - - - - - - -
26/09:30pm 23.5 SSE 11 14 1009.8 - 0.0 - - - - - - -
26/09:00pm 23.9 SSE 11 15 1009.8 - 0.0 - - - - - - -
26/08:30pm 23.8 S 9 11 1009.8 - 0.0 - - - - - - -
26/08:00pm 23.2 SSW 9 12 1009.7 - 0.0 - - - - - - -
26/07:30pm 24.3 SSW 9 11 1009.8 - 0.0 - - - - - - -
26/07:00pm 26.5 S 10 13 1009.8 - 0.0 - - - - - - -
26/06:30pm 27.9 S 12 15 1009.7 - 0.0 - - - - - - -
26/06:00pm 28.0 SSW 11 14 1009.5 - 0.0 - - - - - - -
26/05:30pm 27.3 SSW 9 12 1009.7 - 0.0 - - - - - - -
26/05:00pm 27.7 SSW 10 13 1009.9 - 0.0 - - - - - - -
26/04:30pm 28.2 SW 8 11 1010.2 - 0.0 - - - - - - -
26/04:00pm 27.6 SW 10 12 1010.3 - 0.0 - - - - - - -
26/03:30pm 27.5 SW 10 13 1010.6 - 0.0 - - - - - - -
26/03:00pm 27.4 SW 10 13 1011.0 - 0.0 - - - - - - -
26/02:30pm 27.6 SW 10 13 1011.3 - 0.0 - - - - - - -
26/02:00pm 26.9 SW 9 12 1011.7 - 0.0 - - - - - - -
26/01:30pm 26.4 SW 8 11 1011.9 - 0.0 - - - - - - -
26/01:00pm 26.1 SW 9 11 1012.3 - 0.0 - - - - - - -
26/12:30pm 25.5 SW 6 8 1013.0 - 0.0 - - - - - - -
26/12:00pm 28.5 ESE 8 12 1013.5 - 0.0 - - - - - - -
26/11:30am 26.9 ESE 12 17 1013.8 - 0.0 - - - - - - -
26/11:00am 25.9 ESE 13 18 1014.3 - 0.0 - - - - - - -
26/10:30am 23.5 ESE 17 22 1014.6 - 0.0 - - - - - - -
26/10:00am 22.8 ESE 17 21 1014.7 - 0.0 - - - - - - -
26/09:30am 21.4 ESE 19 25 1015.0 - 0.0 - - - - - - -
26/09:00am 19.9 ESE 20 26 1015.1 - 0.0 - - - - - - -
26/08:30am 18.4 ESE 20 25 1015.5 - 0.0 - - - - - - -
26/08:00am 17.5 ESE 20 26 1015.8 - 0.0 - - - - - - -
26/07:30am 16.7 ESE 19 26 1016.2 - 0.0 - - - - - - -
26/07:00am 15.9 ESE 18 24 1016.3 - 0.0 - - - - - - -
26/06:30am 15.4 E 19 25 1016.3 - 0.0 - - - - - - -
26/06:00am 14.7 E 19 26 1016.4 - 0.0 - - - - - - -
26/05:30am 14.3 ESE 18 25 1016.4 - 0.0 - - - - - - -
26/05:00am 14.2 ESE 19 25 1016.1 - 0.0 - - - - - - -
26/04:30am 14.3 ESE 20 27 1015.7 - 0.0 - - - - - - -
26/04:00am 14.5 ESE 20 28 1015.6 - 0.0 - - - - - - -
26/03:30am 14.9 ESE 20 27 1015.7 - 0.0 - - - - - - -
26/03:00am 15.3 ESE 19 25 1015.8 - 0.0 - - - - - - -
26/02:30am 15.8 ESE 19 25 1015.7 - 0.0 - - - - - - -
26/02:00am 16.2 ESE 18 24 1015.8 - 0.0 - - - - - - -
26/01:30am 16.7 ESE 19 25 1015.9 - 0.0 - - - - - - -
26/01:00am 16.2 ESE 18 23 1015.7 - 0.0 - - - - - - -
26/12:30am 16.6 ESE 19 24 1015.6 - 0.0 - - - - - - -
26/12:00am 17.1 SE 19 24 1015.6 - 0.0 - - - - - - -
 
Date/Time
WST
Temp

°C
Wind Pressure Rain
since 9am
mm
Weather Cloud Vis
km
Sea
Height
m
Swell
Dir
 
Speed
knots
Gust
knots
hPa Trend Height
m
Period
s
Dir
25/11:30pm 17.2 SE 19 24 1015.5 - 0.0 - - - - - - -
25/11:00pm 17.4 SE 20 26 1015.4 - 0.0 - - - - - - -
25/10:30pm 17.7 SE 20 26 1015.3 - 0.0 - - - - - - -
25/10:00pm 18.2 SE 19 28 1015.2 - 0.0 - - - - - - -
25/09:35pm 18.3 SE 19 29 1015.2 - 0.0 - - - - - - -
25/09:30pm 18.1 SE 18 24 1015.2 - 0.0 - - - - - - -
25/09:00pm 18.4 SSE 20 27 1015.0 - 0.0 - - - - - - -
25/08:34pm 18.3 SSE 16 26 1015.0 - 0.0 - - - - - - -
25/08:30pm 18.3 S 15 22 1015.1 - 0.0 - - - - - - -
25/08:00pm 18.8 S 14 21 1014.9 - 0.0 - - - - - - -
25/07:30pm 19.5 S 14 23 1014.5 - 0.0 - - - - - - -
25/07:00pm 21.6 S 13 19 1014.7 - 0.0 - - - - - - -
25/06:30pm 23.5 S 14 18 1014.6 - 0.0 - - - - - - -
25/06:00pm 24.8 S 14 19 1014.3 - 0.0 - - - - - - -
25/05:30pm 25.9 SSW 11 16 1014.3 - 0.0 - - - - - - -
25/05:00pm 25.3 SSW 11 15 1014.6 - 0.0 - - - - - - -
25/04:30pm 26.1 SW 9 12 1014.8 - 0.0 - - - - - - -
25/04:00pm 26.5 SW 9 11 1015.3 - 0.0 - - - - - - -
25/03:30pm 26.4 SW 9 13 1015.5 - 0.0 - - - - - - -
25/03:00pm 26.4 WSW 9 12 1015.9 - 0.0 - - - - - - -
25/02:30pm 25.7 WSW 9 12 1016.2 - 0.0 - - - - - - -
25/02:00pm 25.3 WSW 9 12 1016.7 - 0.0 - - - - - - -
25/01:30pm 25.4 WSW 10 13 1016.9 - 0.0 - - - - - - -
25/01:00pm 24.7 W 10 13 1017.2 - 0.0 - - - - - - -
25/12:30pm 24.5 WNW 7 11 1017.5 - 0.0 - - - - - - -
25/12:00pm 24.7 ENE 9 11 1017.8 - 0.0 - - - - - - -
25/11:30am 24.3 E 11 14 1017.9 - 0.0 - - - - - - -
25/11:00am 23.4 E 12 16 1018.2 - 0.0 - - - - - - -
25/10:30am 23.0 E 14 18 1018.4 - 0.0 - - - - - - -
25/10:00am 21.8 E 15 20 1018.7 - 0.0 - - - - - - -
25/09:30am 20.6 ESE 14 19 1018.8 - 0.0 - - - - - - -
25/09:00am 19.4 ESE 18 26 1018.7 - 0.0 - - - - - - -
25/08:30am 19.1 ESE 18 25 1018.7 - 0.0 - - - - - - -
25/08:08am 18.2 ESE 16 26 1018.7 - 0.0 - - - - - - -
25/08:00am 18.1 ESE 18 23 1018.7 - 0.0 - - - - - - -
25/07:30am 16.7 ESE 19 25 1018.8 - 0.0 - - - - - - -
25/07:00am 15.4 SE 19 27 1018.5 - 0.0 - - - - - - -
25/06:30am 14.4 SE 19 26 1018.2 - 0.0 - - - - - - -
25/06:00am 13.4 SE 19 24 1018.0 - 0.0 - - - - - - -
25/05:30am 13.1 SE 17 23 1017.8 - 0.0 - - - - - - -
25/05:00am 13.1 SE 18 27 1017.5 - 0.0 - - - - - - -
25/04:30am 13.2 SE 19 24 1017.1 - 0.0 - - - - - - -
25/04:00am 13.3 SE 19 23 1017.0 - 0.0 - - - - - - -
25/03:30am 13.4 SE 18 23 1016.8 - 0.0 - - - - - - -
25/03:00am 13.6 SE 18 25 1016.7 - 0.0 - - - - - - -
25/02:30am 13.8 SE 18 27 1016.6 - 0.0 - - - - - - -
25/02:00am 14.1 SE 19 26 1016.4 - 0.0 - - - - - - -
25/01:30am 14.3 SE 19 27 1016.4 - 0.0 - - - - - - -
25/01:00am 14.6 SE 20 26 1016.4 - 0.0 - - - - - - -
25/12:30am 14.8 SE 20 29 1016.5 - 0.0 - - - - - - -
25/12:07am 15.1 SE 19 29 1016.5 - 0.0 - - - - - - -
25/12:00am 15.2 SE 20 27 1016.6 - 0.0 - - - - - - -
 
Date/Time
WST
Temp

°C
Wind Pressure Rain
since 9am
mm
Weather Cloud Vis
km
Sea
Height
m
Swell
Dir
 
Speed
knots
Gust
knots
hPa Trend Height
m
Period
s
Dir
24/11:39pm 15.4 SE 17 28 1016.8 - 0.0 - - - - - - -
24/11:30pm 15.3 SE 14 24 1017.0 - 0.0 - - - - - - -
24/11:00pm 15.4 SSE 13 23 1017.2 - 0.0 - - - - - - -
24/10:30pm 15.6 SSE 12 19 1017.2 - 0.0 - - - - - - -
24/10:00pm 15.7 S 13 19 1017.2 - 0.0 - - - - - - -
24/09:30pm 15.8 S 13 19 1017.1 - 0.0 - - - - - - -
24/09:00pm 16.0 S 13 21 1016.9 - 0.0 - - - - - - -
24/08:30pm 16.6 S 15 20 1016.6 - 0.0 - - - - - - -
24/08:00pm 17.1 S 15 21 1016.3 - 0.0 - - - - - - -
24/07:30pm 17.7 S 13 17 1016.2 - 0.0 - - - - - - -
24/07:00pm 18.5 S 14 19 1016.2 - 0.0 - - - - - - -
24/06:30pm 19.2 S 16 21 1016.2 - 0.0 - - - - - - -
24/06:00pm 19.2 SSW 19 24 1016.0 - 0.0 - - - - - - -
24/05:30pm 19.3 SSW 19 26 1015.6 - 0.0 - - - - - - -
24/05:00pm 20.5 SSW 22 30 1015.7 - 0.0 - - - - - - -
24/04:30pm 20.0 SSW 22 31 1015.9 - 0.0 - - - - - - -
24/04:00pm 21.5 SSW 23 29 1016.1 - 0.0 - - - - - - -
24/03:46pm 21.2 SSW 22 32 1016.1 - 0.0 - - - - - - -
24/03:30pm 21.6 SSW 24 31 1016.2 - 0.0 - - - - - - -
24/03:00pm 19.7 SSW 23 29 1016.1 - 0.0 - - - - - - -
24/02:33pm 21.7 SSW 23 33 1016.1 - 0.0 - - - - - - -
24/02:30pm 20.9 SSW 24 33 1016.2 - 0.0 - - - - - - -
24/02:00pm 21.6 SSW 24 31 1016.2 - 0.0 - - - - - - -
24/01:53pm 21.0 SSW 23 33 1016.2 - 0.0 - - - - - - -

Other Formats:

Comma delimited format used in spreadsheet applications
http://www.bom.gov.au/fwo/IDW60701/IDW60701.94600.axf

JavaScript Object Notation format (JSON) in row-major order
http://www.bom.gov.au/fwo/IDW60701/IDW60701.94600.json